createdAt,value
2022-11-29T00:06:17.250Z,4.06
2022-11-29T00:16:21.841Z,3.67
2022-11-29T00:26:25.292Z,3.51
2022-11-29T00:36:29.894Z,3.50
2022-11-29T00:46:33.080Z,3.14
2022-11-29T00:56:37.562Z,3.24
2022-11-29T01:06:40.838Z,2.56
2022-11-29T01:16:45.406Z,3.19
2022-11-29T01:26:48.615Z,3.26
2022-11-29T01:36:53.207Z,3.33
2022-11-29T01:46:57.220Z,3.19
2022-11-29T01:57:03.976Z,3.94
2022-11-29T02:07:07.110Z,4.55
2022-11-29T02:17:19.854Z,4.50
2022-11-29T02:27:53.746Z,4.79
2022-11-29T02:38:23.116Z,3.72
2022-11-29T02:48:41.479Z,3.76
2022-11-29T02:58:50.288Z,3.69
2022-11-29T03:08:57.121Z,3.81
2022-11-29T03:19:07.031Z,4.26
2022-11-29T03:29:13.814Z,3.82
2022-11-29T03:39:20.197Z,3.64
2022-11-29T03:49:27.632Z,4.20
2022-11-29T03:59:48.438Z,4.19
2022-11-29T04:10:03.458Z,4.29
2022-11-29T04:20:47.829Z,4.27
2022-11-29T04:31:02.360Z,4.38
2022-11-29T04:41:45.016Z,4.49
2022-11-29T04:51:55.153Z,4.34
2022-11-29T05:02:06.392Z,4.18
2022-11-29T05:12:18.236Z,4.25
2022-11-29T05:22:26.918Z,4.30
2022-11-29T05:32:40.764Z,4.21
2022-11-29T05:42:58.350Z,3.62
2022-11-29T05:53:09.183Z,4.05
2022-11-29T06:03:17.392Z,4.25
2022-11-29T06:13:32.600Z,4.09
2022-11-29T06:23:53.092Z,4.26
2022-11-29T06:34:03.879Z,4.10
2022-11-29T06:44:08.064Z,4.20
2022-11-29T06:54:21.130Z,3.92
2022-11-29T07:04:45.844Z,4.10
2022-11-29T07:14:51.524Z,2.86
2022-11-29T07:24:59.847Z,3.15
2022-11-29T07:35:10.244Z,4.27
2022-11-29T07:45:17.553Z,4.68
2022-11-29T07:55:22.918Z,3.13
2022-11-29T08:05:25.963Z,4.35
2022-11-29T08:15:30.455Z,4.10
2022-11-29T08:25:33.499Z,4.25
2022-11-29T08:35:39.140Z,4.60
2022-11-29T08:45:42.246Z,3.00
2022-11-29T08:55:48.758Z,4.19
2022-11-29T09:05:52.606Z,4.12
2022-11-29T09:15:57.572Z,3.44
2022-11-29T09:26:00.679Z,4.39
2022-11-29T09:36:05.843Z,4.58
2022-11-29T09:46:19.693Z,4.67
2022-11-29T09:56:30.332Z,4.77
2022-11-29T10:06:38.798Z,4.64
2022-11-29T10:16:45.969Z,4.78
2022-11-29T10:26:49.099Z,4.83
2022-11-29T10:36:55.139Z,4.85
2022-11-29T10:46:58.399Z,4.74
2022-11-29T10:57:03.194Z,4.59
2022-11-29T11:07:07.434Z,5.03
2022-11-29T11:17:26.121Z,4.99
2022-11-29T11:27:34.189Z,5.38
2022-11-29T11:37:38.748Z,5.80
2022-11-29T11:47:44.615Z,5.82
2022-11-29T11:57:49.189Z,5.90
2022-11-29T12:08:11.818Z,6.06
2022-11-29T12:18:19.776Z,6.28
2022-11-29T12:28:25.355Z,6.15
2022-11-29T12:38:46.047Z,6.28
2022-11-29T12:48:58.265Z,6.22
2022-11-29T12:59:16.701Z,6.18
2022-11-29T13:09:45.604Z,6.29
2022-11-29T13:19:53.943Z,6.31
2022-11-29T13:29:57.235Z,6.56
2022-11-29T13:40:10.779Z,5.78
2022-11-29T13:50:38.807Z,6.08
2022-11-29T14:00:51.552Z,6.11
2022-11-29T14:10:56.651Z,6.21
2022-11-29T14:21:01.146Z,6.25
2022-11-29T14:31:05.384Z,6.30
2022-11-29T14:41:22.067Z,6.10
2022-11-29T14:51:26.849Z,5.88
2022-11-29T15:01:31.393Z,5.64
2022-11-29T15:11:42.187Z,5.33
2022-11-29T15:21:52.534Z,5.10
2022-11-29T15:31:57.952Z,4.76
2022-11-29T15:42:03.607Z,4.55
2022-11-29T15:52:10.862Z,4.21
2022-11-29T16:02:20.175Z,3.89
2022-11-29T16:12:23.427Z,3.66
2022-11-29T16:22:27.903Z,3.70
2022-11-29T16:32:32.773Z,3.65
2022-11-29T16:42:37.223Z,3.54
2022-11-29T16:52:40.547Z,3.61
2022-11-29T17:02:46.496Z,3.79
2022-11-29T17:12:50.175Z,3.22
2022-11-29T17:22:54.904Z,3.53
2022-11-29T17:32:58.034Z,3.25
2022-11-29T17:43:02.768Z,3.25
2022-11-29T17:53:06.599Z,3.09
2022-11-29T18:03:11.337Z,2.96
2022-11-29T18:13:14.671Z,2.76
2022-11-29T18:23:19.819Z,2.77
2022-11-29T18:33:23.525Z,2.96
2022-11-29T18:43:28.379Z,2.69
2022-11-29T18:53:32.054Z,2.80
2022-11-29T19:03:38.624Z,2.91
2022-11-29T19:13:42.516Z,3.01
2022-11-29T19:23:52.712Z,2.92
2022-11-29T19:33:58.283Z,3.21
2022-11-29T19:44:04.448Z,3.57
2022-11-29T19:54:09.248Z,3.68
2022-11-29T20:04:16.702Z,3.81
2022-11-29T20:14:20.050Z,3.92
2022-11-29T20:24:24.751Z,3.96
2022-11-29T20:34:28.595Z,4.08
2022-11-29T20:44:38.678Z,4.33
2022-11-29T20:54:42.844Z,4.23
2022-11-29T21:04:47.991Z,4.01
2022-11-29T21:14:52.231Z,4.23
2022-11-29T21:25:02.667Z,4.50
2022-11-29T21:35:06.773Z,4.29
2022-11-29T21:45:15.659Z,4.48
2022-11-29T21:55:19.226Z,4.49
2022-11-29T22:05:23.799Z,4.38
2022-11-29T22:15:27.234Z,3.34
2022-11-29T22:25:31.618Z,4.60
2022-11-29T22:35:34.764Z,4.18
2022-11-29T22:45:39.311Z,4.51
2022-11-29T22:55:42.458Z,4.98
2022-11-29T23:05:46.984Z,5.16
2022-11-29T23:15:50.207Z,5.06
2022-11-29T23:25:54.611Z,5.37
2022-11-29T23:36:02.255Z,5.39
2022-11-29T23:46:09.356Z,5.51
2022-11-29T23:56:15.247Z,5.54
